createdAt,value
2019-06-26T00:01:55.658Z,22.20
2019-06-26T00:04:24.121Z,22.10
2019-06-26T00:06:52.602Z,22.10
2019-06-26T00:09:21.132Z,22.10
2019-06-26T00:11:49.703Z,22.10
2019-06-26T00:14:18.146Z,22.00
2019-06-26T00:16:46.635Z,22.00
2019-06-26T00:19:15.077Z,22.00
2019-06-26T00:21:43.554Z,22.00
2019-06-26T00:24:12.001Z,22.00
2019-06-26T00:26:40.486Z,22.00
2019-06-26T00:29:08.937Z,21.90
2019-06-26T00:31:37.409Z,21.90
2019-06-26T00:34:05.876Z,21.90
2019-06-26T00:36:34.354Z,21.90
2019-06-26T00:39:03.473Z,21.90
2019-06-26T00:41:31.963Z,21.80
2019-06-26T00:44:00.519Z,21.80
2019-06-26T00:46:29.047Z,21.80
2019-06-26T00:48:57.501Z,21.80
2019-06-26T00:51:26.157Z,21.80
2019-06-26T00:53:54.612Z,21.80
2019-06-26T00:56:23.092Z,21.80
2019-06-26T00:58:51.541Z,21.80
2019-06-26T01:01:20.019Z,21.70
2019-06-26T01:03:50.109Z,21.70
2019-06-26T01:06:32.327Z,21.70
2019-06-26T01:09:00.850Z,21.70
2019-06-26T01:11:29.333Z,21.60
2019-06-26T01:13:58.497Z,21.70
2019-06-26T01:16:27.142Z,21.60
2019-06-26T01:18:55.589Z,21.60
2019-06-26T01:21:24.337Z,21.60
2019-06-26T01:23:52.790Z,21.60
2019-06-26T01:26:21.273Z,21.60
2019-06-26T01:28:49.745Z,21.60
2019-06-26T01:31:18.295Z,21.50
2019-06-26T01:33:46.832Z,21.60
2019-06-26T01:36:15.311Z,21.50
2019-06-26T01:38:43.770Z,21.50
2019-06-26T01:41:12.324Z,21.60
2019-06-26T01:43:40.858Z,21.70
2019-06-26T01:46:09.417Z,21.80
2019-06-26T01:48:37.876Z,21.80
2019-06-26T01:51:06.411Z,21.90
2019-06-26T01:53:34.887Z,22.00
2019-06-26T01:56:03.418Z,22.10
2019-06-26T01:58:31.900Z,22.20
2019-06-26T02:01:00.426Z,22.20
2019-06-26T02:03:28.928Z,22.20
2019-06-26T02:05:57.453Z,22.30
2019-06-26T02:08:25.933Z,22.40
2019-06-26T02:10:54.393Z,22.60
2019-06-26T02:13:22.878Z,22.70
2019-06-26T02:15:51.338Z,22.80
2019-06-26T02:18:33.388Z,22.80
2019-06-26T02:21:01.926Z,22.80
2019-06-26T02:23:30.478Z,22.80
2019-06-26T02:25:58.925Z,22.80
2019-06-26T02:28:27.402Z,22.70
2019-06-26T02:30:55.861Z,22.70
2019-06-26T02:33:24.350Z,22.60
2019-06-26T02:35:52.807Z,22.60
2019-06-26T02:38:21.290Z,22.60
2019-06-26T02:40:49.754Z,22.60
2019-06-26T02:43:18.404Z,22.60
2019-06-26T02:45:46.870Z,22.60
2019-06-26T02:48:15.416Z,22.50
2019-06-26T02:50:43.865Z,22.50
2019-06-26T02:53:12.342Z,22.40
2019-06-26T02:55:40.971Z,22.40
2019-06-26T02:58:09.453Z,22.30
2019-06-26T03:00:37.906Z,22.30
2019-06-26T03:03:06.377Z,22.20
2019-06-26T03:05:34.844Z,22.20
2019-06-26T03:08:03.397Z,22.10
2019-06-26T03:10:31.858Z,22.10
2019-06-26T03:13:00.369Z,22.00
2019-06-26T03:15:28.889Z,22.00
2019-06-26T03:17:57.434Z,21.90
2019-06-26T03:20:28.970Z,21.90
2019-06-26T03:22:57.459Z,21.80
2019-06-26T03:25:25.930Z,21.80
2019-06-26T03:27:54.686Z,21.80
2019-06-26T03:30:23.198Z,21.80
2019-06-26T03:32:51.914Z,21.80
2019-06-26T03:35:20.365Z,21.80
2019-06-26T03:37:48.841Z,21.80
2019-06-26T03:40:17.358Z,21.80
2019-06-26T03:42:45.834Z,21.90
2019-06-26T03:45:25.320Z,22.00
2019-06-26T03:47:44.934Z,22.10
2019-06-26T03:50:13.889Z,22.20
2019-06-26T03:52:42.402Z,22.30
2019-06-26T03:55:10.991Z,22.40
2019-06-26T03:57:39.456Z,22.40
2019-06-26T04:00:09.247Z,22.50
2019-06-26T04:02:37.907Z,22.50
2019-06-26T04:05:06.927Z,22.50
2019-06-26T04:07:35.448Z,22.50
2019-06-26T04:10:06.097Z,22.50
2019-06-26T04:12:34.794Z,22.50
2019-06-26T04:15:04.578Z,22.60
2019-06-26T04:17:33.033Z,22.60
2019-06-26T04:20:01.634Z,22.60
2019-06-26T04:22:30.129Z,22.70
2019-06-26T04:24:58.667Z,22.70
2019-06-26T04:27:27.184Z,22.80
2019-06-26T04:29:55.666Z,22.80
2019-06-26T04:32:24.114Z,22.80
2019-06-26T04:34:54.574Z,22.90
2019-06-26T04:37:21.969Z,22.90
2019-06-26T04:39:50.458Z,23.00
2019-06-26T04:42:18.906Z,23.10
2019-06-26T04:44:47.416Z,23.20
2019-06-26T04:47:15.901Z,23.20
2019-06-26T04:49:44.383Z,23.30
2019-06-26T04:52:12.835Z,23.40
2019-06-26T04:54:41.404Z,23.50
2019-06-26T04:57:09.851Z,23.50
2019-06-26T04:59:38.351Z,23.60
2019-06-26T05:02:07.037Z,23.60
2019-06-26T05:04:35.515Z,23.60
2019-06-26T05:07:03.966Z,23.70
2019-06-26T05:09:32.553Z,23.70
2019-06-26T05:12:01.017Z,23.70
2019-06-26T05:14:29.500Z,23.80
2019-06-26T05:16:58.086Z,23.80
2019-06-26T05:19:26.620Z,23.90
2019-06-26T05:21:55.066Z,23.80
2019-06-26T05:24:23.541Z,24.00
2019-06-26T05:26:51.986Z,24.00
2019-06-26T05:29:20.461Z,24.00
2019-06-26T05:31:48.904Z,24.10
2019-06-26T05:34:17.385Z,24.10
2019-06-26T05:36:45.845Z,24.20
2019-06-26T05:39:14.327Z,24.30
2019-06-26T05:41:42.777Z,24.30
2019-06-26T05:44:11.249Z,24.40
2019-06-26T05:46:39.711Z,24.40
2019-06-26T05:49:08.273Z,24.60
2019-06-26T05:51:36.736Z,24.60
2019-06-26T05:54:05.395Z,24.70
2019-06-26T05:56:33.901Z,24.70
2019-06-26T05:59:02.400Z,24.70
2019-06-26T06:01:31.170Z,24.80
2019-06-26T06:03:59.621Z,24.90
2019-06-26T06:06:41.023Z,25.00
2019-06-26T06:08:58.278Z,25.00
2019-06-26T06:11:26.760Z,25.10
2019-06-26T06:13:55.205Z,25.10
2019-06-26T06:16:23.685Z,25.20
2019-06-26T06:18:52.144Z,25.30
2019-06-26T06:21:20.634Z,25.30
2019-06-26T06:23:49.089Z,25.40
2019-06-26T06:26:17.569Z,25.40
2019-06-26T06:28:46.016Z,25.50
2019-06-26T06:31:14.500Z,25.60
2019-06-26T06:33:42.962Z,25.60
2019-06-26T06:36:11.509Z,25.70
2019-06-26T06:38:39.955Z,25.80
2019-06-26T06:41:08.501Z,25.90
2019-06-26T06:43:36.964Z,25.90
2019-06-26T06:46:05.461Z,26.00
2019-06-26T06:48:33.964Z,26.10
2019-06-26T06:51:02.516Z,26.20
2019-06-26T06:53:30.975Z,26.20
2019-06-26T06:55:59.445Z,26.30
2019-06-26T06:58:30.172Z,26.40
2019-06-26T07:00:58.102Z,26.50
2019-06-26T07:03:26.630Z,26.60
2019-06-26T07:05:55.122Z,26.70
2019-06-26T07:08:23.641Z,26.80
2019-06-26T07:10:52.124Z,27.00
2019-06-26T07:13:20.670Z,27.10
2019-06-26T07:15:49.210Z,27.20
2019-06-26T07:18:17.838Z,27.30
2019-06-26T07:20:46.394Z,27.30
2019-06-26T07:23:14.919Z,27.40
2019-06-26T07:25:43.384Z,27.60
2019-06-26T07:28:11.923Z,27.60
2019-06-26T07:30:40.630Z,27.80
2019-06-26T07:33:09.150Z,27.90
2019-06-26T07:35:37.624Z,28.00
2019-06-26T07:38:06.077Z,28.10
2019-06-26T07:40:34.531Z,28.20
2019-06-26T07:43:03.086Z,28.30
2019-06-26T07:45:31.536Z,28.40
2019-06-26T07:48:00.021Z,28.60
2019-06-26T07:50:32.167Z,28.70
2019-06-26T07:52:58.751Z,28.80
2019-06-26T07:55:27.201Z,29.00
2019-06-26T07:57:55.689Z,29.00
2019-06-26T08:00:24.312Z,29.20
2019-06-26T08:02:52.785Z,29.30
2019-06-26T08:05:21.374Z,29.50
2019-06-26T08:07:49.845Z,29.60
2019-06-26T08:10:18.357Z,29.70
2019-06-26T08:12:46.830Z,29.90
2019-06-26T08:15:18.097Z,30.10
2019-06-26T08:17:59.791Z,30.30
2019-06-26T08:20:16.912Z,30.40
2019-06-26T08:22:45.393Z,30.60
2019-06-26T08:25:14.873Z,30.60
2019-06-26T08:27:43.416Z,30.70
2019-06-26T08:30:12.507Z,30.80
2019-06-26T08:32:41.066Z,30.90
2019-06-26T08:35:09.764Z,31.00
2019-06-26T08:37:38.372Z,31.10
2019-06-26T08:40:08.638Z,31.20
2019-06-26T08:42:37.111Z,31.30
2019-06-26T08:45:07.669Z,31.40
2019-06-26T08:47:36.253Z,31.50
2019-06-26T08:50:09.024Z,31.50
2019-06-26T08:52:37.835Z,31.60
2019-06-26T08:55:08.797Z,31.70
2019-06-26T08:57:37.283Z,31.80
2019-06-26T09:00:06.673Z,31.90
2019-06-26T09:02:35.217Z,32.00
2019-06-26T09:05:05.505Z,32.00
2019-06-26T09:07:34.225Z,32.20
2019-06-26T09:10:03.213Z,32.30
2019-06-26T09:12:31.754Z,32.30
2019-06-26T09:15:00.205Z,32.40
2019-06-26T09:17:28.677Z,32.40
2019-06-26T09:19:57.137Z,32.60
2019-06-26T09:22:25.673Z,32.80
2019-06-26T09:24:54.130Z,32.80
2019-06-26T09:27:22.618Z,32.90
2019-06-26T09:29:51.069Z,33.00
2019-06-26T09:32:19.533Z,33.00
2019-06-26T09:34:47.994Z,33.00
2019-06-26T09:37:16.477Z,33.10
2019-06-26T09:39:44.984Z,33.20
2019-06-26T09:42:13.831Z,33.30
2019-06-26T09:44:42.278Z,33.40
2019-06-26T09:47:10.752Z,33.50
2019-06-26T09:49:39.199Z,33.50
2019-06-26T09:52:07.876Z,33.60
2019-06-26T09:54:36.375Z,33.70
2019-06-26T09:57:04.898Z,33.80
2019-06-26T09:59:33.373Z,33.90
2019-06-26T10:02:01.817Z,34.10
2019-06-26T10:04:30.321Z,34.20
2019-06-26T10:06:58.816Z,34.30
2019-06-26T10:09:27.277Z,34.40
2019-06-26T10:11:55.749Z,34.60
2019-06-26T10:14:24.217Z,34.50
2019-06-26T10:16:52.683Z,34.60
2019-06-26T10:19:21.257Z,34.80
2019-06-26T10:21:49.741Z,34.90
2019-06-26T10:24:18.200Z,35.10
2019-06-26T10:26:46.661Z,35.20
2019-06-26T10:29:15.222Z,35.10
2019-06-26T10:31:43.661Z,35.20
2019-06-26T10:34:12.124Z,35.40
2019-06-26T10:36:40.570Z,35.70
2019-06-26T10:39:09.352Z,35.90
2019-06-26T10:41:37.942Z,36.20
2019-06-26T10:44:06.553Z,36.50
2019-06-26T10:46:35.061Z,36.40
2019-06-26T10:49:03.548Z,36.60
2019-06-26T10:51:31.986Z,36.60
2019-06-26T10:54:06.256Z,36.80
2019-06-26T10:56:30.802Z,36.60
2019-06-26T10:58:59.286Z,36.60
2019-06-26T11:01:27.805Z,36.70
2019-06-26T11:03:56.282Z,36.60
2019-06-26T11:06:24.716Z,36.50
2019-06-26T11:08:53.194Z,36.30
2019-06-26T11:11:21.647Z,36.60
2019-06-26T11:13:50.109Z,36.60
2019-06-26T11:16:18.562Z,36.50
2019-06-26T11:18:47.033Z,36.20
2019-06-26T11:21:15.477Z,35.80
2019-06-26T11:23:44.417Z,35.90
2019-06-26T11:26:12.850Z,36.10
2019-06-26T11:28:41.334Z,36.00
2019-06-26T11:31:09.783Z,35.80
2019-06-26T11:33:38.418Z,35.90
2019-06-26T11:36:07.003Z,36.10
2019-06-26T11:38:35.529Z,36.60
2019-06-26T11:41:04.145Z,37.00
2019-06-26T11:43:32.615Z,37.20
2019-06-26T11:46:01.073Z,36.90
2019-06-26T11:48:29.590Z,37.00
2019-06-26T11:50:58.129Z,37.50
2019-06-26T11:53:26.571Z,38.00
2019-06-26T11:55:55.836Z,37.90
2019-06-26T11:58:24.334Z,38.00
2019-06-26T12:00:53.174Z,38.20
2019-06-26T12:03:21.679Z,38.50
2019-06-26T12:05:50.241Z,38.60
2019-06-26T12:08:19.473Z,38.50
2019-06-26T12:10:47.941Z,38.50
2019-06-26T12:13:16.427Z,38.70
2019-06-26T12:15:44.928Z,38.60
2019-06-26T12:18:13.369Z,38.90
2019-06-26T12:20:42.009Z,39.10
2019-06-26T12:23:10.467Z,39.50
2019-06-26T12:25:39.215Z,39.80
2019-06-26T12:28:07.671Z,39.50
2019-06-26T12:30:36.133Z,39.20
2019-06-26T12:33:04.648Z,38.70
2019-06-26T12:35:33.117Z,38.80
2019-06-26T12:38:01.585Z,38.80
2019-06-26T12:40:31.267Z,38.70
2019-06-26T12:43:00.081Z,38.90
2019-06-26T12:45:28.557Z,39.10
2019-06-26T12:47:57.152Z,38.60
2019-06-26T12:50:35.348Z,38.30
2019-06-26T12:52:56.330Z,38.80
2019-06-26T12:55:24.853Z,39.30
2019-06-26T12:57:53.460Z,38.90
2019-06-26T13:00:22.243Z,38.60
2019-06-26T13:02:50.966Z,38.70
2019-06-26T13:05:19.681Z,38.60
2019-06-26T13:07:48.201Z,38.00
2019-06-26T13:10:18.689Z,38.30
2019-06-26T13:12:47.125Z,38.70
2019-06-26T13:15:16.644Z,38.60
2019-06-26T13:17:45.183Z,38.30
2019-06-26T13:20:15.042Z,37.90
2019-06-26T13:22:43.497Z,37.80
2019-06-26T13:25:15.684Z,37.70
2019-06-26T13:27:42.442Z,37.80
2019-06-26T13:30:11.287Z,38.10
2019-06-26T13:32:39.732Z,38.00
2019-06-26T13:35:08.529Z,37.80
2019-06-26T13:37:36.976Z,37.70
2019-06-26T13:40:06.994Z,37.40
2019-06-26T13:42:35.435Z,37.50
2019-06-26T13:45:06.313Z,37.20
2019-06-26T13:47:34.761Z,37.00
2019-06-26T13:50:04.777Z,37.30
2019-06-26T13:52:33.233Z,37.60
2019-06-26T13:55:01.666Z,38.10
2019-06-26T13:57:30.157Z,38.30
2019-06-26T13:59:58.593Z,38.30
2019-06-26T14:02:27.070Z,38.60
2019-06-26T14:04:55.520Z,39.20
2019-06-26T14:07:23.998Z,39.60
2019-06-26T14:09:52.447Z,39.90
2019-06-26T14:12:20.917Z,39.90
2019-06-26T14:14:57.456Z,39.50
2019-06-26T14:17:19.564Z,39.20
2019-06-26T14:19:48.012Z,39.10
2019-06-26T14:22:16.482Z,39.40
2019-06-26T14:24:44.925Z,39.20
2019-06-26T14:27:13.405Z,39.00
2019-06-26T14:29:41.858Z,39.50
2019-06-26T14:32:10.334Z,39.20
2019-06-26T14:34:38.779Z,39.20
2019-06-26T14:37:07.253Z,39.20
2019-06-26T14:39:35.702Z,39.00
2019-06-26T14:42:04.256Z,38.40
2019-06-26T14:44:32.713Z,38.00
2019-06-26T14:47:01.262Z,37.80
2019-06-26T14:49:29.840Z,37.50
2019-06-26T14:51:58.370Z,37.90
2019-06-26T14:54:26.817Z,37.60
2019-06-26T14:56:55.294Z,37.80
2019-06-26T14:59:23.753Z,38.10
2019-06-26T15:01:52.230Z,38.60
2019-06-26T15:04:20.686Z,39.00
2019-06-26T15:06:49.172Z,39.00
2019-06-26T15:09:17.632Z,39.10
2019-06-26T15:11:46.117Z,38.60
2019-06-26T15:14:14.579Z,38.10
2019-06-26T15:16:43.126Z,38.20
2019-06-26T15:19:11.641Z,38.70
2019-06-26T15:21:40.121Z,38.80
2019-06-26T15:24:08.569Z,38.90
2019-06-26T15:26:37.054Z,38.90
2019-06-26T15:29:05.497Z,39.10
2019-06-26T15:31:33.983Z,39.50
2019-06-26T15:34:02.429Z,39.20
2019-06-26T15:36:31.021Z,39.20
2019-06-26T15:38:59.477Z,38.90
2019-06-26T15:41:27.970Z,38.60
2019-06-26T15:43:56.491Z,38.90
2019-06-26T15:46:25.104Z,38.80
2019-06-26T15:48:53.577Z,38.30
2019-06-26T15:51:22.029Z,38.00
2019-06-26T15:53:50.510Z,37.90
2019-06-26T15:56:18.962Z,38.30
2019-06-26T15:58:47.454Z,38.70
2019-06-26T16:01:15.966Z,38.90
2019-06-26T16:03:44.442Z,39.00
2019-06-26T16:06:12.903Z,38.60
2019-06-26T16:08:41.378Z,38.50
2019-06-26T16:11:09.833Z,38.50
2019-06-26T16:13:38.307Z,38.60
2019-06-26T16:16:06.843Z,38.30
2019-06-26T16:18:37.161Z,38.10
2019-06-26T16:21:05.614Z,37.90
2019-06-26T16:23:34.090Z,37.50
2019-06-26T16:26:02.546Z,37.40
2019-06-26T16:28:31.013Z,37.60
2019-06-26T16:30:59.487Z,37.50
2019-06-26T16:33:27.957Z,37.40
2019-06-26T16:35:56.416Z,37.70
2019-06-26T16:38:24.897Z,37.80
2019-06-26T16:40:53.409Z,37.50
2019-06-26T16:43:21.886Z,37.50
2019-06-26T16:45:50.340Z,37.60
2019-06-26T16:48:18.916Z,37.30
2019-06-26T16:50:47.365Z,37.50
2019-06-26T16:53:15.918Z,37.40
2019-06-26T16:55:44.400Z,37.30
2019-06-26T16:58:12.908Z,37.20
2019-06-26T17:00:41.358Z,37.00
2019-06-26T17:03:09.845Z,36.70
2019-06-26T17:05:38.297Z,36.60
2019-06-26T17:08:06.774Z,36.50
2019-06-26T17:10:35.493Z,36.20
2019-06-26T17:13:04.007Z,36.10
2019-06-26T17:15:32.548Z,36.10
2019-06-26T17:18:01.066Z,36.10
2019-06-26T17:20:29.579Z,36.30
2019-06-26T17:23:05.546Z,36.10
2019-06-26T17:25:28.228Z,36.10
2019-06-26T17:27:56.702Z,35.90
2019-06-26T17:30:25.285Z,35.70
2019-06-26T17:32:53.766Z,35.50
2019-06-26T17:35:22.229Z,35.20
2019-06-26T17:37:58.643Z,35.10
2019-06-26T17:40:22.750Z,35.20
2019-06-26T17:42:51.238Z,35.10
2019-06-26T17:45:20.141Z,34.80
2019-06-26T17:47:48.589Z,34.80
2019-06-26T17:50:17.060Z,34.70
2019-06-26T17:52:45.538Z,34.50
2019-06-26T17:55:14.221Z,34.50
2019-06-26T17:57:42.670Z,34.40
2019-06-26T18:00:11.986Z,34.30
2019-06-26T18:02:41.201Z,34.10
2019-06-26T18:05:10.601Z,34.10
2019-06-26T18:07:39.059Z,33.90
2019-06-26T18:10:08.467Z,33.60
2019-06-26T18:12:37.003Z,33.40
2019-06-26T18:15:06.915Z,33.30
2019-06-26T18:17:35.467Z,33.20
2019-06-26T18:23:37.816Z,33.00
2019-06-26T18:26:12.533Z,32.80
2019-06-26T18:28:32.637Z,32.80
2019-06-26T18:31:01.082Z,32.70
2019-06-26T18:33:29.542Z,32.70
2019-06-26T18:35:58.193Z,32.60
2019-06-26T18:38:26.646Z,32.70
2019-06-26T18:40:55.117Z,32.70
2019-06-26T18:43:23.643Z,32.60
2019-06-26T18:45:52.113Z,32.30
2019-06-26T18:48:20.552Z,32.20
2019-06-26T18:50:49.026Z,32.10
2019-06-26T18:53:17.491Z,32.00
2019-06-26T18:55:45.961Z,31.80
2019-06-26T18:58:14.405Z,31.60
2019-06-26T19:00:42.893Z,31.40
2019-06-26T19:03:11.337Z,31.20
2019-06-26T19:05:39.814Z,31.10
2019-06-26T19:08:08.269Z,30.90
2019-06-26T19:10:36.745Z,30.90
2019-06-26T19:13:05.189Z,30.80
2019-06-26T19:15:33.673Z,30.70
2019-06-26T19:18:02.143Z,30.60
2019-06-26T19:20:33.660Z,30.50
2019-06-26T19:23:00.978Z,30.40
2019-06-26T19:25:29.457Z,30.30
2019-06-26T19:27:57.909Z,30.20
2019-06-26T19:30:26.453Z,30.10
2019-06-26T19:32:54.904Z,30.00
2019-06-26T19:35:23.389Z,29.90
2019-06-26T19:37:51.970Z,29.80
2019-06-26T19:40:23.794Z,29.70
2019-06-26T19:42:50.730Z,29.60
2019-06-26T19:45:19.485Z,29.50
2019-06-26T19:47:47.926Z,29.40
2019-06-26T19:50:16.741Z,29.30
2019-06-26T19:52:45.189Z,29.30
2019-06-26T19:55:14.023Z,29.20
2019-06-26T19:57:42.555Z,29.10
2019-06-26T20:00:11.942Z,29.00
2019-06-26T20:02:40.390Z,28.90
2019-06-26T20:05:09.497Z,28.80
2019-06-26T20:07:37.953Z,28.80
2019-06-26T20:10:07.365Z,28.70
2019-06-26T20:12:35.809Z,28.70
2019-06-26T20:15:05.739Z,28.60
2019-06-26T20:17:33.404Z,28.40
2019-06-26T20:20:01.876Z,28.30
2019-06-26T20:22:30.329Z,28.30
2019-06-26T20:24:58.887Z,28.20
2019-06-26T20:27:27.410Z,28.20
2019-06-26T20:29:55.854Z,28.10
2019-06-26T20:32:24.327Z,28.00
2019-06-26T20:34:53.122Z,27.90
2019-06-26T20:37:21.593Z,27.80
2019-06-26T20:39:50.033Z,27.80
2019-06-26T20:42:18.513Z,27.70
2019-06-26T20:44:47.078Z,27.70
2019-06-26T20:47:15.633Z,27.60
2019-06-26T20:49:53.175Z,27.50
2019-06-26T20:52:14.278Z,27.50
2019-06-26T20:54:56.758Z,27.40
2019-06-26T20:57:12.945Z,27.40
2019-06-26T20:59:41.554Z,27.30
2019-06-26T21:02:10.225Z,27.20
2019-06-26T21:04:38.733Z,27.20
2019-06-26T21:07:07.206Z,27.10
2019-06-26T21:09:35.648Z,27.10
2019-06-26T21:12:04.131Z,27.00
2019-06-26T21:14:32.662Z,27.00
2019-06-26T21:17:01.187Z,26.90
2019-06-26T21:19:29.644Z,26.90
2019-06-26T21:21:58.113Z,26.80
2019-06-26T21:24:26.562Z,26.80
2019-06-26T21:26:55.107Z,26.80
2019-06-26T21:29:23.545Z,26.70
2019-06-26T21:31:52.018Z,26.70
2019-06-26T21:34:20.522Z,26.60
2019-06-26T21:36:49.289Z,26.50
2019-06-26T21:39:17.808Z,26.50
2019-06-26T21:41:46.355Z,26.40
2019-06-26T21:44:14.820Z,26.30
2019-06-26T21:46:44.011Z,26.30
2019-06-26T21:49:12.549Z,26.20
2019-06-26T21:51:41.023Z,26.10
2019-06-26T21:54:09.479Z,26.00
2019-06-26T21:56:37.967Z,25.90
2019-06-26T21:59:06.478Z,25.90
2019-06-26T22:01:35.117Z,25.80
2019-06-26T22:04:03.649Z,25.80
2019-06-26T22:06:32.364Z,25.80
2019-06-26T22:09:00.832Z,25.70
2019-06-26T22:11:29.494Z,25.70
2019-06-26T22:13:57.981Z,25.50
2019-06-26T22:16:26.481Z,25.40
2019-06-26T22:18:54.965Z,25.30
2019-06-26T22:21:23.408Z,25.30
2019-06-26T22:23:51.882Z,25.30
2019-06-26T22:26:20.349Z,25.20
2019-06-26T22:28:48.815Z,25.10
2019-06-26T22:31:17.261Z,25.00
2019-06-26T22:33:45.737Z,24.90
2019-06-26T22:36:14.181Z,24.90
2019-06-26T22:38:42.669Z,24.80
2019-06-26T22:41:11.112Z,24.70
2019-06-26T22:43:39.591Z,24.60
2019-06-26T22:46:08.102Z,24.50
2019-06-26T22:48:38.585Z,24.40
2019-06-26T22:51:07.042Z,24.40
2019-06-26T22:53:35.514Z,24.40
2019-06-26T22:56:08.002Z,24.30
2019-06-26T22:58:34.333Z,24.20
2019-06-26T23:01:02.843Z,24.10
2019-06-26T23:03:31.439Z,24.10
2019-06-26T23:05:59.885Z,24.00
2019-06-26T23:08:28.353Z,24.00
2019-06-26T23:10:56.802Z,23.90
2019-06-26T23:13:25.269Z,23.90
2019-06-26T23:15:53.713Z,23.80
2019-06-26T23:18:22.194Z,23.70
2019-06-26T23:20:50.641Z,23.70
2019-06-26T23:23:19.118Z,23.60
2019-06-26T23:25:47.562Z,23.60
2019-06-26T23:28:16.034Z,23.40
2019-06-26T23:30:44.491Z,23.50
2019-06-26T23:33:13.034Z,23.40
2019-06-26T23:35:41.482Z,23.30
2019-06-26T23:38:09.961Z,23.20
2019-06-26T23:40:38.409Z,23.10
2019-06-26T23:43:06.892Z,23.00
2019-06-26T23:45:35.335Z,22.90
2019-06-26T23:48:04.081Z,22.90
2019-06-26T23:50:35.110Z,22.80
2019-06-26T23:53:03.629Z,22.70
2019-06-26T23:55:32.094Z,22.70
2019-06-26T23:58:00.633Z,22.60
